Airport View

Enter AWOS ICAO identifier for current METAR.

ex. KFNL

KUES 080755Z AUTO 00000KT M1/4SM FG OVC005 07/07 A2972 RMK AO2

8 Apr 2020 08:00

Frequency: 118.875

Phone: 262-521-5226

Other Area AWOS: KMWC - K57C - KMKE - KBUU

TAF AMD KUES 080740Z 0808/0906 00000KT 1/4SM FG BKN005 FM081100 00000KT 1/2SM FG BKN003 FM081400 21004KT P6SM SCT003 SCT120 FM082000 25011G20KT P6SM VCSH BKN070 FM090200 31012KT P6SM SCT100